Time;durP1;ratioP1;P1;durP2;ratioP2;P2;SDS_P1;SDS_P2;PMS_P1;PMS_P2;Temp;Humidity;BMP_temperature;BMP_pressure;BME280_temperature;BME280_humidity;BME280_pressure;Samples;Min_cycle;Max_cycle;Signal;HPM_P1;HPM_P2
2022/09/26 00:01:05;;;;;;;2.85;1.50;;;;;;;;;;5075300;28;20013;-59
2022/09/26 00:03:31;;;;;;;2.05;1.10;;;;;;;;;;5039035;28;20036;-58
2022/09/26 00:06:00;;;;;;;2.40;1.20;;;;;;;;;;5073638;28;20080;-49
2022/09/26 00:08:25;;;;;;;4.13;1.40;;;;;;;;;;5072392;28;20080;-49
2022/09/26 00:10:56;;;;;;;2.50;1.10;;;;;;;;;;5073692;28;20032;-47
2022/09/26 00:13:21;;;;;;;2.92;1.30;;;;;;;;;;5072641;28;20571;-59
2022/09/26 00:15:47;;;;;;;3.70;1.40;;;;;;;;;;5072219;28;20081;-58
2022/09/26 00:18:12;;;;;;;2.33;1.20;;;;;;;;;;5053144;28;20087;-59
2022/09/26 00:20:37;;;;;;;3.43;1.50;;;;;;;;;;5076756;28;20274;-58
2022/09/26 00:23:02;;;;;;;3.37;1.20;;;;;;;;;;5077139;28;20063;-47
2022/09/26 00:25:27;;;;;;;2.93;1.30;;;;;;;;;;5076287;28;20023;-50
2022/09/26 00:27:53;;;;;;;5.18;1.40;;;;;;;;;;5076837;28;20326;-50
2022/09/26 00:30:18;;;;;;;2.20;1.30;;;;;;;;;;5076345;28;20487;-48
2022/09/26 00:32:43;;;;;;;2.23;1.23;;;;;;;;;;5076202;28;20756;-47
2022/09/26 00:35:09;;;;;;;2.58;1.35;;;;;;;;;;5075580;28;20032;-59
2022/09/26 00:37:34;;;;;;;3.50;1.27;;;;;;;;;;5077146;28;20031;-49
2022/09/26 00:39:59;;;;;;;3.00;1.30;;;;;;;;;;5076036;28;20683;-50
2022/09/26 00:42:24;;;;;;;4.13;1.45;;;;;;;;;;5076993;28;20032;-48
2022/09/26 00:44:53;;;;;;;2.53;1.23;;;;;;;;;;5075423;28;20040;-50
2022/09/26 00:47:22;;;;;;;2.25;1.35;;;;;;;;;;5076011;28;20432;-50
2022/09/26 00:49:49;;;;;;;3.38;1.30;;;;;;;;;;5076710;28;20024;-48
2022/09/26 00:52:16;;;;;;;2.22;1.40;;;;;;;;;;5076005;28;20027;-48
2022/09/26 00:54:44;;;;;;;3.05;1.40;;;;;;;;;;5056509;28;20024;-47
2022/09/26 00:57:13;;;;;;;1.38;1.10;;;;;;;;;;5074011;28;20115;-55
2022/09/26 00:59:42;;;;;;;2.75;1.33;;;;;;;;;;5076924;28;20222;-58
2022/09/26 01:02:08;;;;;;;3.67;1.60;;;;;;;;;;5077027;28;20771;-58
2022/09/26 01:04:34;;;;;;;1.95;1.23;;;;;;;;;;5077008;28;20034;-59
2022/09/26 01:07:01;;;;;;;3.30;1.45;;;;;;;;;;5076005;28;20108;-50
2022/09/26 01:09:28;;;;;;;1.13;1.02;;;;;;;;;;5076303;28;20028;-48
2022/09/26 01:11:53;;;;;;;2.08;1.25;;;;;;;;;;5057191;28;20118;-58
2022/09/26 01:14:20;;;;;;;1.80;1.30;;;;;;;;;;5076457;28;20622;-58
2022/09/26 01:16:46;;;;;;;1.95;1.30;;;;;;;;;;5075792;28;20028;-58
2022/09/26 01:19:24;;;;;;;2.05;1.30;;;;;;;;;;5075739;28;20024;-58
2022/09/26 01:22:07;;;;;;;2.65;1.33;;;;;;;;;;5075487;28;20790;-48
2022/09/26 01:24:38;;;;;;;1.70;1.33;;;;;;;;;;5075347;27;20032;-59
2022/09/26 01:27:06;;;;;;;2.08;1.30;;;;;;;;;;5076036;28;20195;-59
2022/09/26 01:29:50;;;;;;;2.00;1.30;;;;;;;;;;5076004;28;20115;-56
2022/09/26 01:32:49;;;;;;;2.00;1.38;;;;;;;;;;5074020;28;20030;-49
2022/09/26 01:35:15;;;;;;;3.10;1.15;;;;;;;;;;5074857;28;20106;-58
2022/09/26 01:37:52;;;;;;;1.83;1.30;;;;;;;;;;5075697;28;20660;-59
2022/09/26 01:40:30;;;;;;;1.90;1.27;;;;;;;;;;5075203;28;20435;-58
2022/09/26 01:43:04;;;;;;;4.03;1.30;;;;;;;;;;5075326;28;20051;-58
2022/09/26 01:46:05;;;;;;;2.38;1.17;;;;;;;;;;5063566;28;20689;-48
2022/09/26 01:48:38;;;;;;;1.90;1.40;;;;;;;;;;4993776;28;20132;-59
2022/09/26 01:51:08;;;;;;;3.00;1.45;;;;;;;;;;5061928;28;20036;-47
2022/09/26 01:53:37;;;;;;;1.92;1.38;;;;;;;;;;5074842;28;20031;-58
2022/09/26 01:56:13;;;;;;;2.10;1.40;;;;;;;;;;5075135;28;20367;-49
2022/09/26 01:58:42;;;;;;;2.65;1.55;;;;;;;;;;5075186;27;20027;-57
2022/09/26 02:01:10;;;;;;;2.28;1.38;;;;;;;;;;5075932;28;20515;-58
2022/09/26 02:03:37;;;;;;;3.28;1.60;;;;;;;;;;5074156;28;20028;-46
2022/09/26 02:06:04;;;;;;;2.17;1.38;;;;;;;;;;5075235;28;20020;-47
2022/09/26 02:08:47;;;;;;;2.35;1.20;;;;;;;;;;5073283;28;20039;-49
2022/09/26 02:11:16;;;;;;;2.70;1.70;;;;;;;;;;5075470;28;20906;-58
2022/09/26 02:13:48;;;;;;;2.58;1.40;;;;;;;;;;5071278;28;20606;-58
2022/09/26 02:16:19;;;;;;;2.30;1.60;;;;;;;;;;5074495;28;20131;-49
2022/09/26 02:19:05;;;;;;;2.97;1.40;;;;;;;;;;5075160;28;21427;-49
2022/09/26 02:21:30;;;;;;;2.15;1.33;;;;;;;;;;5074784;28;20040;-58
2022/09/26 02:23:55;;;;;;;2.87;1.47;;;;;;;;;;5073869;28;20056;-49
2022/09/26 02:26:21;;;;;;;3.73;1.50;;;;;;;;;;5076117;28;20509;-49
2022/09/26 02:28:46;;;;;;;2.67;1.45;;;;;;;;;;5056446;28;20055;-58
2022/09/26 02:31:14;;;;;;;3.40;1.33;;;;;;;;;;5073999;28;20479;-58
2022/09/26 02:33:39;;;;;;;3.15;1.38;;;;;;;;;;5073988;28;20701;-59
2022/09/26 02:36:07;;;;;;;2.80;1.50;;;;;;;;;;5055808;28;20039;-58
2022/09/26 02:38:33;;;;;;;1.45;1.30;;;;;;;;;;5074547;28;20031;-58
2022/09/26 02:41:00;;;;;;;2.80;1.30;;;;;;;;;;5075432;28;20637;-58
2022/09/26 02:43:25;;;;;;;3.15;1.40;;;;;;;;;;5074117;28;20509;-48
2022/09/26 02:45:56;;;;;;;3.25;1.40;;;;;;;;;;5073649;28;20028;-48
2022/09/26 02:48:30;;;;;;;1.50;1.20;;;;;;;;;;5073683;28;20036;-48
2022/09/26 02:51:07;;;;;;;2.08;1.60;;;;;;;;;;5073569;28;20051;-47
2022/09/26 02:53:47;;;;;;;2.03;1.48;;;;;;;;;;5073404;28;20031;-47
2022/09/26 02:56:16;;;;;;;3.27;1.50;;;;;;;;;;5055827;28;20487;-46
2022/09/26 02:58:47;;;;;;;1.98;1.30;;;;;;;;;;5074724;28;20104;-47
2022/09/26 03:01:16;;;;;;;3.70;1.45;;;;;;;;;;5073427;28;20436;-48
2022/09/26 03:03:54;;;;;;;2.58;1.40;;;;;;;;;;5073562;28;20024;-48
2022/09/26 03:06:23;;;;;;;2.63;1.35;;;;;;;;;;5074055;28;20034;-58
2022/09/26 03:08:50;;;;;;;2.28;1.30;;;;;;;;;;5074339;28;20524;-58
2022/09/26 03:11:17;;;;;;;2.70;1.55;;;;;;;;;;5072824;28;20043;-47
2022/09/26 03:13:43;;;;;;;1.60;1.40;;;;;;;;;;5074333;28;20039;-48
2022/09/26 03:16:09;;;;;;;2.40;1.38;;;;;;;;;;5073031;28;20024;-47
2022/09/26 03:18:46;;;;;;;2.45;1.42;;;;;;;;;;5055374;28;20027;-46
2022/09/26 03:21:13;;;;;;;3.60;1.33;;;;;;;;;;5073170;28;20024;-57
2022/09/26 03:23:39;;;;;;;3.85;1.60;;;;;;;;;;5073571;28;20100;-47
2022/09/26 03:26:09;;;;;;;2.38;1.52;;;;;;;;;;5073474;28;20713;-47
2022/09/26 03:28:35;;;;;;;2.40;1.35;;;;;;;;;;5073683;28;20020;-48
2022/09/26 03:31:00;;;;;;;1.90;1.40;;;;;;;;;;5072763;28;20589;-57
2022/09/26 03:33:25;;;;;;;2.78;1.73;;;;;;;;;;5054593;28;20030;-48
2022/09/26 03:35:51;;;;;;;3.00;1.50;;;;;;;;;;5054229;28;20027;-48
2022/09/26 03:38:16;;;;;;;2.85;1.60;;;;;;;;;;5074412;28;20284;-57
2022/09/26 03:40:41;;;;;;;2.90;1.58;;;;;;;;;;5073935;28;20081;-57
2022/09/26 03:43:07;;;;;;;3.00;1.60;;;;;;;;;;5056412;28;20038;-49
2022/09/26 03:45:35;;;;;;;4.10;1.40;;;;;;;;;;5072935;28;20027;-57
2022/09/26 03:48:00;;;;;;;3.75;1.70;;;;;;;;;;5074254;28;20705;-47
2022/09/26 03:50:25;;;;;;;1.95;1.45;;;;;;;;;;5073284;28;20491;-49
2022/09/26 03:52:51;;;;;;;2.20;1.57;;;;;;;;;;5072314;28;20136;-58
2022/09/26 03:55:16;;;;;;;3.30;1.55;;;;;;;;;;5036868;28;20296;-48
2022/09/26 03:57:41;;;;;;;4.07;1.40;;;;;;;;;;5073029;28;20532;-48
2022/09/26 04:00:07;;;;;;;1.97;1.40;;;;;;;;;;5075668;28;20790;-58
2022/09/26 04:02:32;;;;;;;2.53;1.65;;;;;;;;;;5073591;28;20063;-48
2022/09/26 04:04:58;;;;;;;2.97;1.40;;;;;;;;;;5071459;28;20061;-52
2022/09/26 04:07:23;;;;;;;3.10;1.50;;;;;;;;;;5055078;28;20028;-60
2022/09/26 04:09:48;;;;;;;2.10;1.57;;;;;;;;;;5072978;28;20806;-60
2022/09/26 04:12:14;;;;;;;2.75;1.70;;;;;;;;;;5073033;28;20430;-49
2022/09/26 04:14:39;;;;;;;3.38;1.50;;;;;;;;;;5072136;28;20035;-59
2022/09/26 04:17:04;;;;;;;2.53;1.67;;;;;;;;;;5073449;28;20031;-48
2022/09/26 04:19:30;;;;;;;2.47;1.60;;;;;;;;;;5071859;28;20154;-59
2022/09/26 04:21:55;;;;;;;5.07;1.50;;;;;;;;;;5073173;28;20393;-58
2022/09/26 04:24:21;;;;;;;2.58;1.50;;;;;;;;;;5072729;28;20036;-46
2022/09/26 04:26:46;;;;;;;2.25;1.40;;;;;;;;;;5055011;28;20599;-59
2022/09/26 04:29:12;;;;;;;2.80;1.35;;;;;;;;;;5073164;28;20023;-59
2022/09/26 04:31:38;;;;;;;2.80;1.23;;;;;;;;;;5072412;28;21710;-49
2022/09/26 04:34:04;;;;;;;3.55;1.73;;;;;;;;;;5072245;28;20472;-59
2022/09/26 04:36:29;;;;;;;3.20;1.40;;;;;;;;;;5073295;28;20559;-47
2022/09/26 04:38:56;;;;;;;2.63;1.40;;;;;;;;;;5073702;28;20771;-59
2022/09/26 04:41:22;;;;;;;1.85;1.50;;;;;;;;;;5073052;28;20536;-59
2022/09/26 04:43:47;;;;;;;2.63;1.30;;;;;;;;;;5073138;28;20730;-59
2022/09/26 04:46:16;;;;;;;3.33;1.60;;;;;;;;;;5072303;28;20652;-59
2022/09/26 04:48:42;;;;;;;2.60;1.63;;;;;;;;;;5072791;28;20047;-59
2022/09/26 04:51:09;;;;;;;2.05;1.20;;;;;;;;;;5072166;28;20126;-59
2022/09/26 04:53:34;;;;;;;2.67;1.40;;;;;;;;;;5072311;28;20032;-48
2022/09/26 04:55:59;;;;;;;3.42;1.40;;;;;;;;;;5072350;28;20015;-59
2022/09/26 04:58:25;;;;;;;3.05;1.40;;;;;;;;;;5072316;28;20088;-47
2022/09/26 05:00:51;;;;;;;3.13;1.42;;;;;;;;;;5072362;28;20248;-49
2022/09/26 05:03:16;;;;;;;3.35;1.40;;;;;;;;;;5071926;28;20397;-50
2022/09/26 05:05:44;;;;;;;3.65;1.52;;;;;;;;;;5072706;28;20028;-50
2022/09/26 05:08:10;;;;;;;3.67;1.30;;;;;;;;;;5075675;28;21585;-48
2022/09/26 05:10:36;;;;;;;2.75;1.30;;;;;;;;;;5076393;28;20031;-48
2022/09/26 05:13:02;;;;;;;3.40;1.40;;;;;;;;;;5075285;28;20421;-49
2022/09/26 05:15:27;;;;;;;1.83;1.40;;;;;;;;;;5058096;28;20024;-50
2022/09/26 05:17:56;;;;;;;2.22;1.20;;;;;;;;;;5075325;28;20050;-51
2022/09/26 05:20:23;;;;;;;2.70;1.30;;;;;;;;;;5076301;28;20028;-48
2022/09/26 05:22:48;;;;;;;2.25;1.60;;;;;;;;;;5075519;28;20393;-48
2022/09/26 05:27:57;;;;;;;2.15;1.35;;;;;;;;;;5075020;28;20042;-48
2022/09/26 05:30:25;;;;;;;3.20;1.37;;;;;;;;;;5075150;28;20028;-49
2022/09/26 05:32:50;;;;;;;1.83;1.13;;;;;;;;;;5074647;28;20024;-59
2022/09/26 05:35:15;;;;;;;1.77;1.30;;;;;;;;;;5075397;28;20042;-47
2022/09/26 05:37:41;;;;;;;1.83;1.15;;;;;;;;;;5075625;28;20768;-48
2022/09/26 05:42:50;;;;;;;3.17;1.38;;;;;;;;;;5060944;28;20143;-59
2022/09/26 05:45:15;;;;;;;3.27;1.30;;;;;;;;;;5054596;28;20680;-47
2022/09/26 05:47:40;;;;;;;3.33;1.40;;;;;;;;;;5074769;28;20649;-59
2022/09/26 05:50:09;;;;;;;2.63;1.33;;;;;;;;;;5074310;28;20024;-59
2022/09/26 05:52:34;;;;;;;2.03;1.33;;;;;;;;;;5076647;28;20096;-49
2022/09/26 05:55:00;;;;;;;3.20;1.50;;;;;;;;;;5073939;28;20019;-48
2022/09/26 05:57:25;;;;;;;2.57;1.30;;;;;;;;;;5075496;28;20027;-48
2022/09/26 05:59:50;;;;;;;3.10;1.17;;;;;;;;;;5073874;28;20851;-48
2022/09/26 06:02:15;;;;;;;2.03;1.50;;;;;;;;;;5057770;28;20114;-50
2022/09/26 06:04:41;;;;;;;11.87;3.93;;;;;;;;;;5073924;28;20044;-49
2022/09/26 06:07:06;;;;;;;76.72;19.20;;;;;;;;;;5075259;28;20531;-52
2022/09/26 06:09:32;;;;;;;105.07;25.93;;;;;;;;;;5075755;28;20389;-60
2022/09/26 06:11:57;;;;;;;126.68;30.38;;;;;;;;;;5066494;28;20278;-59
2022/09/26 06:14:25;;;;;;;127.47;29.93;;;;;;;;;;5067134;28;20184;-58
2022/09/26 06:16:50;;;;;;;120.50;28.02;;;;;;;;;;5068224;28;20320;-52
2022/09/26 06:19:15;;;;;;;90.97;22.87;;;;;;;;;;5069143;28;20031;-59
2022/09/26 06:21:42;;;;;;;77.03;19.08;;;;;;;;;;5068325;28;20364;-61
2022/09/26 06:24:08;;;;;;;63.25;16.55;;;;;;;;;;5069952;28;20694;-59
2022/09/26 06:26:33;;;;;;;53.55;14.77;;;;;;;;;;5068897;28;20028;-63
2022/09/26 06:28:59;;;;;;;42.77;12.33;;;;;;;;;;5068944;28;20043;-56
2022/09/26 06:31:24;;;;;;;45.65;11.52;;;;;;;;;;5069628;28;20063;-57
2022/09/26 06:33:52;;;;;;;32.97;9.57;;;;;;;;;;5070227;28;20065;-57
2022/09/26 06:36:17;;;;;;;34.40;8.13;;;;;;;;;;5069414;28;20115;-60
2022/09/26 06:38:42;;;;;;;23.27;6.28;;;;;;;;;;5068749;28;20300;-58
2022/09/26 06:41:07;;;;;;;18.77;5.07;;;;;;;;;;5068672;28;20690;-58
2022/09/26 06:43:33;;;;;;;12.30;4.67;;;;;;;;;;5066627;27;20559;-59
2022/09/26 06:45:58;;;;;;;17.23;4.93;;;;;;;;;;5069773;28;20479;-60
2022/09/26 06:48:24;;;;;;;14.70;4.57;;;;;;;;;;5069175;28;20044;-59
2022/09/26 06:50:54;;;;;;;12.52;3.85;;;;;;;;;;5069075;28;20606;-59
2022/09/26 06:53:19;;;;;;;10.07;4.03;;;;;;;;;;5067530;28;20126;-52
2022/09/26 06:55:44;;;;;;;8.80;3.10;;;;;;;;;;5062958;28;20862;-57
2022/09/26 06:58:10;;;;;;;10.90;3.37;;;;;;;;;;5068172;28;20672;-58
2022/09/26 07:00:35;;;;;;;10.67;3.07;;;;;;;;;;5050046;28;20374;-58
2022/09/26 07:03:00;;;;;;;7.47;2.58;;;;;;;;;;5070291;28;20114;-59
2022/09/26 07:05:26;;;;;;;9.27;2.88;;;;;;;;;;5067005;28;20679;-60
2022/09/26 07:07:52;;;;;;;7.32;2.40;;;;;;;;;;5068869;28;20024;-60
2022/09/26 07:10:18;;;;;;;6.00;2.38;;;;;;;;;;5069456;28;20542;-57
2022/09/26 07:12:45;;;;;;;6.25;2.40;;;;;;;;;;5061874;28;20032;-59
2022/09/26 07:15:12;;;;;;;4.93;2.50;;;;;;;;;;5065274;28;20072;-59
2022/09/26 07:17:38;;;;;;;4.93;2.15;;;;;;;;;;5066402;28;20042;-59
2022/09/26 07:20:03;;;;;;;4.40;2.17;;;;;;;;;;5046797;28;20582;-57
2022/09/26 07:22:28;;;;;;;6.45;2.30;;;;;;;;;;5048886;28;20630;-55
2022/09/26 07:24:54;;;;;;;5.00;2.00;;;;;;;;;;5064989;28;20027;-59
2022/09/26 07:27:19;;;;;;;3.37;1.77;;;;;;;;;;5067521;28;20407;-60
2022/09/26 07:29:46;;;;;;;13.10;1.93;;;;;;;;;;5066006;28;20281;-63
2022/09/26 07:32:11;;;;;;;7.13;2.00;;;;;;;;;;5066838;28;20031;-62
2022/09/26 07:34:37;;;;;;;11.90;2.75;;;;;;;;;;5066368;28;20373;-62
2022/09/26 07:37:03;;;;;;;7.50;2.10;;;;;;;;;;5066943;28;20030;-62
2022/09/26 07:39:28;;;;;;;9.63;2.50;;;;;;;;;;5066552;28;20472;-64
2022/09/26 07:41:53;;;;;;;6.03;2.20;;;;;;;;;;5067674;28;20332;-63
2022/09/26 07:44:18;;;;;;;5.87;2.13;;;;;;;;;;5065879;28;20016;-62
2022/09/26 07:52:12;;;;;;;6.28;2.20;;;;;;;;;;5064524;28;20565;-56
2022/09/26 07:54:38;;;;;;;4.88;2.10;;;;;;;;;;5065725;28;20031;-62
2022/09/26 07:57:04;;;;;;;4.95;1.92;;;;;;;;;;5048595;28;20031;-59
2022/09/26 07:59:34;;;;;;;7.15;2.08;;;;;;;;;;5066114;28;21459;-63
2022/09/26 08:02:00;;;;;;;4.88;1.85;;;;;;;;;;5067076;28;20023;-61
2022/09/26 08:04:26;;;;;;;6.40;1.80;;;;;;;;;;5065225;28;20027;-64
2022/09/26 08:06:51;;;;;;;3.80;1.63;;;;;;;;;;5066074;28;20027;-57
2022/09/26 08:09:17;;;;;;;4.75;1.83;;;;;;;;;;5066119;28;20281;-57
2022/09/26 08:11:42;;;;;;;4.15;1.80;;;;;;;;;;5066485;28;20035;-56
2022/09/26 08:14:07;;;;;;;4.00;1.90;;;;;;;;;;5069124;28;20059;-57
2022/09/26 08:16:33;;;;;;;4.53;1.80;;;;;;;;;;5065236;28;20533;-59
2022/09/26 08:18:58;;;;;;;7.93;2.15;;;;;;;;;;5064595;28;20046;-58
2022/09/26 08:21:23;;;;;;;4.15;2.03;;;;;;;;;;5065203;28;20039;-57
2022/09/26 08:23:48;;;;;;;4.20;2.27;;;;;;;;;;5063034;28;20489;-58
2022/09/26 08:26:14;;;;;;;5.00;2.23;;;;;;;;;;5064511;28;20024;-58
2022/09/26 08:28:39;;;;;;;5.40;1.77;;;;;;;;;;5065412;28;20376;-62
2022/09/26 08:31:05;;;;;;;6.13;1.60;;;;;;;;;;5067703;28;20297;-60
2022/09/26 08:33:33;;;;;;;17.58;2.20;;;;;;;;;;5067178;28;20032;-54
2022/09/26 08:36:05;;;;;;;18.73;2.25;;;;;;;;;;5070660;28;20028;-55
2022/09/26 08:38:31;;;;;;;14.18;1.95;;;;;;;;;;5071196;28;20031;-50
2022/09/26 08:41:20;;;;;;;8.98;2.00;;;;;;;;;;5074416;28;20780;-53
2022/09/26 08:43:46;;;;;;;9.68;2.40;;;;;;;;;;5075683;28;20038;-52
2022/09/26 08:46:48;;;;;;;4.28;1.63;;;;;;;;;;5082532;28;20023;-53
2022/09/26 08:49:21;;;;;;;9.10;1.80;;;;;;;;;;5073616;27;20042;-39
2022/09/26 08:51:48;;;;;;;7.97;2.05;;;;;;;;;;5074835;28;20443;-40
2022/09/26 08:54:18;;;;;;;6.35;1.85;;;;;;;;;;5073979;28;20093;-52
2022/09/26 08:56:49;;;;;;;4.43;1.92;;;;;;;;;;5074537;28;20784;-52
2022/09/26 08:59:24;;;;;;;4.83;1.77;;;;;;;;;;5074303;28;20460;-52
2022/09/26 09:01:50;;;;;;;2.97;1.50;;;;;;;;;;5074608;28;20474;-39
2022/09/26 09:04:19;;;;;;;3.88;1.70;;;;;;;;;;5075863;28;20682;-38
2022/09/26 09:06:45;;;;;;;3.80;1.70;;;;;;;;;;5075180;28;20054;-39
2022/09/26 09:09:13;;;;;;;9.43;3.05;;;;;;;;;;5075554;28;20023;-39
2022/09/26 09:11:57;;;;;;;9.70;2.50;;;;;;;;;;5074118;28;20387;-51
2022/09/26 09:14:41;;;;;;;9.27;3.05;;;;;;;;;;5075686;28;20463;-51
2022/09/26 09:17:18;;;;;;;17.10;3.95;;;;;;;;;;5075152;28;20040;-39
2022/09/26 09:20:01;;;;;;;13.70;4.32;;;;;;;;;;5074839;28;20107;-40
2022/09/26 09:22:48;;;;;;;12.13;3.90;;;;;;;;;;5074999;28;20034;-53
2022/09/26 09:25:16;;;;;;;15.18;4.25;;;;;;;;;;5074927;28;20027;-39
2022/09/26 09:28:00;;;;;;;10.20;3.85;;;;;;;;;;5074655;28;22068;-39
2022/09/26 09:30:34;;;;;;;13.77;4.03;;;;;;;;;;5074696;28;20363;-38
2022/09/26 09:33:01;;;;;;;13.38;3.90;;;;;;;;;;5074902;28;21532;-38
2022/09/26 09:35:47;;;;;;;9.90;3.45;;;;;;;;;;5074516;28;20035;-38
2022/09/26 09:38:17;;;;;;;9.40;3.80;;;;;;;;;;5060293;28;20031;-38
2022/09/26 09:40:47;;;;;;;13.95;4.93;;;;;;;;;;5073654;28;20028;-38
2022/09/26 09:43:12;;;;;;;31.17;7.72;;;;;;;;;;5074187;28;20034;-38
2022/09/26 09:45:37;;;;;;;45.13;10.13;;;;;;;;;;5074054;28;20471;-51
2022/09/26 09:48:03;;;;;;;61.90;13.05;;;;;;;;;;5073721;28;20143;-50
2022/09/26 09:50:29;;;;;;;57.05;14.15;;;;;;;;;;5074046;28;20114;-38
2022/09/26 09:53:07;;;;;;;58.00;13.07;;;;;;;;;;5074384;28;20038;-38
2022/09/26 09:55:32;;;;;;;55.63;12.57;;;;;;;;;;5073968;28;20576;-50
2022/09/26 09:57:58;;;;;;;59.37;12.23;;;;;;;;;;5073521;28;20514;-50
2022/09/26 10:00:23;;;;;;;50.60;14.40;;;;;;;;;;5073588;28;20020;-51
2022/09/26 10:02:48;;;;;;;54.60;12.27;;;;;;;;;;5055683;28;20452;-39
2022/09/26 10:05:18;;;;;;;58.13;12.43;;;;;;;;;;5073472;28;20031;-38
2022/09/26 10:07:46;;;;;;;43.03;11.98;;;;;;;;;;5073465;28;20076;-38
2022/09/26 10:10:14;;;;;;;42.95;11.35;;;;;;;;;;5073402;28;20026;-39
2022/09/26 10:12:41;;;;;;;40.05;9.93;;;;;;;;;;5074015;28;20016;-38
2022/09/26 10:15:18;;;;;;;34.53;8.77;;;;;;;;;;5073641;28;20484;-39
2022/09/26 10:17:55;;;;;;;32.47;8.93;;;;;;;;;;5074082;28;20024;-54
2022/09/26 10:20:34;;;;;;;29.00;7.20;;;;;;;;;;5074027;28;20016;-53
2022/09/26 10:23:00;;;;;;;27.48;6.75;;;;;;;;;;5074485;28;20066;-50
2022/09/26 10:25:25;;;;;;;20.55;6.25;;;;;;;;;;5074280;28;20039;-53
2022/09/26 10:27:55;;;;;;;20.33;5.93;;;;;;;;;;5074771;28;20496;-38
2022/09/26 10:30:25;;;;;;;14.70;5.20;;;;;;;;;;5073950;28;20273;-38
2022/09/26 10:32:52;;;;;;;17.58;5.13;;;;;;;;;;5074096;28;20468;-39
2022/09/26 10:35:17;;;;;;;18.48;5.40;;;;;;;;;;5073976;28;20165;-38
2022/09/26 10:37:48;;;;;;;13.43;4.38;;;;;;;;;;5073505;28;20578;-38
2022/09/26 10:43:21;;;;;;;13.30;3.80;;;;;;;;;;5074182;28;20648;-51
2022/09/26 10:45:48;;;;;;;10.95;3.38;;;;;;;;;;5074168;28;20568;-53
2022/09/26 10:48:20;;;;;;;9.27;3.10;;;;;;;;;;5074256;28;20089;-50
2022/09/26 10:50:50;;;;;;;8.63;2.83;;;;;;;;;;5072765;28;20181;-51
2022/09/26 10:53:17;;;;;;;7.55;2.50;;;;;;;;;;5074454;28;20122;-54
2022/09/26 10:55:45;;;;;;;7.18;2.92;;;;;;;;;;5073200;28;20027;-50
2022/09/26 10:58:19;;;;;;;6.20;2.30;;;;;;;;;;5073551;28;20024;-52
2022/09/26 11:00:48;;;;;;;5.88;2.03;;;;;;;;;;5072717;28;20024;-51
2022/09/26 11:03:15;;;;;;;6.22;2.22;;;;;;;;;;5072437;28;20020;-51
2022/09/26 11:05:57;;;;;;;9.32;2.78;;;;;;;;;;5073288;28;21437;-51
2022/09/26 11:10:26;;;;;;;16.17;3.25;;;;;;;20.87;57.79;99683.75;5021371;28;20425;-48
2022/09/26 11:13:01;;;;;;;17.00;2.50;;;;;;;20.85;58.44;99688.47;5018145;28;20513;-51
2022/09/26 11:15:27;;;;;;;14.75;2.33;;;;;;;20.92;57.92;99683.25;5018619;28;20459;-45
2022/09/26 11:17:54;;;;;;;11.98;2.20;;;;;;;20.97;58.56;99688.97;5017225;28;20406;-48
2022/09/26 11:20:28;;;;;;;7.28;2.10;;;;;;;21.01;58.67;99687.66;5015533;28;20204;-48
2022/09/26 11:23:06;;;;;;;7.38;2.20;;;;;;;21.07;58.09;99683.47;5016482;28;20036;-48
2022/09/26 11:25:49;;;;;;;8.80;2.33;;;;;;;21.10;58.33;99681.28;5016240;28;20513;-46
2022/09/26 11:28:21;;;;;;;5.47;1.70;;;;;;;21.13;57.69;99679.28;5016422;28;20574;-44
2022/09/26 11:30:51;;;;;;;6.20;2.20;;;;;;;21.17;57.90;99683.31;5015467;28;20047;-48
2022/09/26 11:33:17;;;;;;;4.45;1.80;;;;;;;21.21;57.60;99676.59;5016029;28;20111;-46
2022/09/26 11:36:18;;;;;;;5.40;2.03;;;;;;;21.23;57.78;99674.59;5015831;28;20055;-47
2022/09/26 11:39:02;;;;;;;7.00;1.77;;;;;;;21.23;57.96;99667.34;5014559;28;20771;-41
2022/09/26 11:41:45;;;;;;;5.75;1.70;;;;;;;21.21;58.29;99672.03;5016538;28;20490;-43
2022/09/26 11:44:28;;;;;;;3.38;1.50;;;;;;;21.20;57.79;99658.75;5015961;28;20096;-43
2022/09/26 11:47:24;;;;;;;4.32;1.67;;;;;;;21.18;57.42;99669.69;5018809;28;20682;-46
2022/09/26 11:49:52;;;;;;;5.22;1.60;;;;;;;21.18;57.49;99664.31;5014741;28;20132;-47
2022/09/26 11:52:50;;;;;;;6.05;1.40;;;;;;;21.17;57.69;99651.00;5014905;28;20094;-45
2022/09/26 11:55:26;;;;;;;6.90;1.50;;;;;;;21.18;57.69;99650.00;5015666;28;20705;-42
2022/09/26 11:58:07;;;;;;;2.83;1.48;;;;;;;21.16;57.71;99639.38;5015844;28;20087;-41
2022/09/26 12:01:03;;;;;;;2.77;1.30;;;;;;;21.18;57.82;99644.63;5015375;28;20037;-43
2022/09/26 12:04:07;;;;;;;3.33;1.60;;;;;;;21.16;57.46;99639.38;5015509;28;20037;-42
2022/09/26 12:07:04;;;;;;;6.95;1.40;;;;;;;21.17;57.54;99642.94;4984094;28;20524;-44
2022/09/26 12:09:47;;;;;;;3.28;1.50;;;;;;;21.16;57.48;99657.41;5015427;28;20478;-42
2022/09/26 12:12:24;;;;;;;2.60;1.35;;;;;;;21.16;57.43;99654.72;5015954;28;20041;-42
2022/09/26 12:15:13;;;;;;;4.55;1.50;;;;;;;21.17;57.27;99656.41;5015459;28;20033;-42
2022/09/26 12:17:58;;;;;;;3.83;1.50;;;;;;;21.15;57.81;99659.25;5016607;28;20040;-47
2022/09/26 12:20:37;;;;;;;3.55;1.50;;;;;;;21.16;57.27;99650.16;5010181;28;20029;-47
2022/09/26 12:23:32;;;;;;;3.65;1.50;;;;;;;21.17;57.56;99640.25;5002442;28;20870;-44
2022/09/26 12:26:35;;;;;;;5.25;1.63;;;;;;;21.17;57.61;99634.88;5001925;28;20060;-48
2022/09/26 12:29:32;;;;;;;21.77;2.47;;;;;;;21.22;57.31;99646.81;5005131;28;20034;-49
2022/09/26 12:32:26;;;;;;;6.65;1.60;;;;;;;21.26;57.49;99637.38;5006162;28;20037;-47
2022/09/26 12:35:10;;;;;;;6.18;1.35;;;;;;;21.29;58.32;99628.13;4992397;28;20048;-48
2022/09/26 12:37:57;;;;;;;5.28;1.85;;;;;;;21.34;57.71;99622.25;5005773;28;20033;-50
2022/09/26 12:40:30;;;;;;;5.45;1.50;;;;;;;21.38;57.95;99621.75;5004527;28;20631;-45
2022/09/26 12:43:27;;;;;;;3.38;1.52;;;;;;;21.39;58.08;99618.00;5002621;28;20059;-43
2022/09/26 12:46:11;;;;;;;3.83;1.50;;;;;;;21.44;58.27;99612.13;5036718;28;20059;-46
2022/09/26 12:48:55;;;;;;;4.93;1.38;;;;;;;21.46;58.37;99599.34;5002700;28;20445;-48
2022/09/26 12:51:47;;;;;;;5.00;1.40;;;;;;;21.47;58.10;99605.56;5005386;28;20437;-51
2022/09/26 12:54:28;;;;;;;2.92;1.55;;;;;;;21.51;58.33;99607.75;5006262;28;20037;-45
2022/09/26 12:57:04;;;;;;;2.60;1.50;;;;;;;21.53;57.99;99608.41;5006497;28;20086;-44
2022/09/26 12:59:59;;;;;;;2.60;1.50;;;;;;;21.55;57.73;99614.50;5006226;28;20120;-52
2022/09/26 13:03:00;;;;;;;2.15;1.40;;;;;;;21.61;57.58;99599.50;5006665;28;20087;-44
2022/09/26 13:05:35;;;;;;;3.23;1.60;;;;;;;21.63;57.79;99600.19;5000532;28;20041;-45
2022/09/26 13:08:30;;;;;;;5.70;1.67;;;;;;;21.69;57.43;99595.97;5004890;28;20033;-47
2022/09/26 13:11:04;;;;;;;4.25;1.70;;;;;;;21.71;57.53;99592.06;4979301;28;20527;-48
2022/09/26 13:13:32;;;;;;;4.90;1.90;;;;;;;21.73;57.03;99586.53;5004524;28;20507;-53
2022/09/26 13:16:03;;;;;;;4.53;1.92;;;;;;;21.77;58.11;99577.09;5004204;28;20029;-49
2022/09/26 13:18:48;;;;;;;4.53;2.28;;;;;;;21.81;57.56;99566.81;5005151;28;20037;-50
2022/09/26 13:21:23;;;;;;;4.65;2.00;;;;;;;21.84;57.24;99569.16;5005301;28;21030;-47
2022/09/26 13:23:56;;;;;;;5.75;2.20;;;;;;;21.87;56.78;99564.25;5007143;28;20029;-48
2022/09/26 13:26:26;;;;;;;8.15;2.20;;;;;;;21.90;56.96;99560.38;5005732;28;20037;-42
2022/09/26 13:29:19;;;;;;;6.57;2.50;;;;;;;21.93;57.26;99558.19;5006612;28;20059;-42
2022/09/26 13:31:54;;;;;;;6.00;2.10;;;;;;;21.98;56.90;99562.19;5006994;28;20119;-44
2022/09/26 13:34:30;;;;;;;4.47;2.40;;;;;;;21.98;56.83;99554.94;5004914;28;20810;-44
2022/09/26 13:37:01;;;;;;;6.25;2.30;;;;;;;22.02;56.36;99571.59;5005072;28;20055;-48
2022/09/26 13:39:50;;;;;;;7.80;2.40;;;;;;;22.05;57.16;99577.50;5005164;28;20028;-44
2022/09/26 13:42:24;;;;;;;7.03;2.40;;;;;;;22.03;56.95;99595.69;5005070;28;20079;-45
2022/09/26 13:45:02;;;;;;;5.70;2.13;;;;;;;22.03;56.79;99595.69;5004267;28;20967;-49
2022/09/26 13:47:45;;;;;;;4.72;2.03;;;;;;;22.04;57.33;99591.16;5002989;28;21172;-46
2022/09/26 13:54:07;;;;;;;7.72;2.50;;;;;;;22.08;56.71;99579.88;4992051;28;20045;-49
2022/09/26 13:56:33;;;;;;;6.78;2.60;;;;;;;22.09;56.57;99583.38;4989211;28;20402;-43
2022/09/26 13:59:12;;;;;;;9.50;2.70;;;;;;;22.09;56.58;99580.69;5004206;28;21488;-49
2022/09/26 14:01:58;;;;;;;7.95;2.67;;;;;;;22.08;56.56;99573.63;5002037;28;20071;-45
2022/09/26 14:04:36;;;;;;;8.90;2.70;;;;;;;22.06;56.84;99568.41;5004928;28;20044;-46
2022/09/26 14:10:08;;;;;;;6.85;2.22;;;;;;;22.04;56.61;99559.63;5001687;28;20139;-44
2022/09/26 14:13:03;;;;;;;6.32;2.63;;;;;;;22.05;56.74;99555.09;5014891;28;20079;-43
2022/09/26 14:15:47;;;;;;;7.43;2.90;;;;;;;22.05;56.79;99558.63;5004315;28;20116;-42
2022/09/26 14:18:25;;;;;;;7.30;2.60;;;;;;;22.05;56.64;99553.25;5001657;28;20033;-43
2022/09/26 14:21:06;;;;;;;7.60;2.78;;;;;;;22.06;56.60;99557.63;5004098;28;21305;-44
2022/09/26 14:23:47;;;;;;;8.23;2.95;;;;;;;22.07;56.23;99545.81;5020273;28;20144;-44
2022/09/26 14:26:26;;;;;;;7.57;2.75;;;;;;;22.07;56.29;99550.34;5003769;28;20044;-46
2022/09/26 14:29:22;;;;;;;9.70;3.10;;;;;;;22.05;56.71;99547.84;4988506;28;20040;-49
2022/09/26 14:32:13;;;;;;;8.60;2.90;;;;;;;22.06;56.60;99541.44;5002930;28;20809;-54
2022/09/26 14:34:45;;;;;;;;;;;;;;;22.07;56.48;99540.44;5003353;28;20033;-47